Página principal
METAR-TAF:

METAR-TAF

Aeroportos :

Damasco, Síria

Aeroporto Internacional de Damasco

latitude: 33-25N, longitude: 036-31E, altura: 608 m

Observação actual do tempo

O boletim foi feito há 57 minutos, às 23:00 UTC
Vento 8 kt de sudoeste
Temperatura 21°C
Humidade 64%
Pressão 1012 hPa
Visibilidade 10 km ou mais
sem nuvens abaixo de 1500 metros e sem cumulonimbus

METAR: OSDI 182300Z 23008KT CAVOK 21/14 Q1012

Hora: 02:57 (23:57 UTC)

Previsão

Previsão válida de 19 às 00 UTC a 20 às 06 UTC
Vento 3 kt com direcção variável
Visibilidade 10 km ou mais
sem nuvens abaixo de 1500 metros e sem cumulonimbus
Temporariamente
de 19 às 09 UTC a 19 às 18 UTC
Vento 15 kt de sudoeste com rajadas de 25 kt
Visibilidade 10 km ou mais
Poucas nuvensa uma altura de 3000 ft

TAF: OSDI 1900/2006 VRB03KT CAVOK TEMPO 1909/1918 22015G25KT 9999 FEW030

Observações e previsões do tempo de mais de 4000 aeroportos (mensagens METAR e TAF).

As estações disponíveis são os pontos amarelos e vermelhos sobre o mapa.

Mova o rato sobre o mapa para ver o nome da estação.

Depois clique no ponto para visualizar as observações e previsões meteorológicas.

Para alterar o mapa : clique nos botões verdes com uma cruz preta para aumentar o zoom; no botão verde com uma pitada de zoom; ou nas setas verdes para mapas adjacentes.


METAR-TAF: